Time;durP1;ratioP1;P1;durP2;ratioP2;P2;SDS_P1;SDS_P2;PMS_P1;PMS_P2;Temp;Humidity;BMP_temperature;BMP_pressure;BME280_temperature;BME280_humidity;BME280_pressure;Samples;Min_cycle;Max_cycle;Signal;HPM_P1;HPM_P2
2023/10/28 00:02:14;;;;;;;;;;;;;;;;;;5017066;28;19941;-83
2023/10/28 00:04:40;;;;;;;;;;;;;;;;;;5032446;28;19942;-82
2023/10/28 00:07:05;;;;;;;;;;;;;;;;;;5020616;28;19925;-84
2023/10/28 00:09:30;;;;;;;;;;;;;;;;;;5019180;28;19967;-85
2023/10/28 00:11:55;;;;;;;;;;;;;;;;;;5014072;28;19914;-83
2023/10/28 00:14:20;;;;;;;;;;;;;;;;;;5026204;28;20427;-83
2023/10/28 00:16:48;;;;;;;;;;;;;;;;;;5030520;28;20012;-84
2023/10/28 00:19:13;;;;;;;;;;;;;;;;;;5025332;28;19917;-84
2023/10/28 00:21:38;;;;;;;;;;;;;;;;;;5029789;28;19912;-83
2023/10/28 00:24:03;;;;;;;;;;;;;;;;;;5033824;28;20218;-83
2023/10/28 00:26:29;;;;;;;;;;;;;;;;;;5035304;28;19918;-83
2023/10/28 00:28:54;;;;;;;;;;;;;;;;;;5022501;28;20386;-83
2023/10/28 00:31:19;;;;;;;;;;;;;;;;;;5027039;28;19952;-83
2023/10/28 00:33:44;;;;;;;;;;;;;;;;;;5031750;28;19941;-84
2023/10/28 00:36:11;;;;;;;;;;;;;;;;;;5043371;28;19996;-84
2023/10/28 00:38:36;;;;;;;;;;;;;;;;;;5027219;28;19933;-84
2023/10/28 00:41:01;;;;;;;;;;;;;;;;;;5030646;28;19939;-83
2023/10/28 00:43:26;;;;;;;;;;;;;;;;;;5018383;28;19913;-84
2023/10/28 00:45:51;;;;;;;;;;;;;;;;;;5031416;28;19913;-84
2023/10/28 00:48:16;;;;;;;;;;;;;;;;;;5043891;28;19986;-83
2023/10/28 00:50:43;;;;;;;283.90;136.40;;;;;;;;;;5019289;28;19943;-82
2023/10/28 00:53:08;;;;;;;;;;;;;;;;;;5031645;28;20254;-84
2023/10/28 00:55:33;;;;;;;;;;;;;;;;;;5031800;28;20234;-83
2023/10/28 00:57:58;;;;;;;342.80;166.93;;;;;;;;;;5022708;28;19913;-85
2023/10/28 01:00:24;;;;;;;;;;;;;;;;;;5018283;28;20927;-84
2023/10/28 01:02:49;;;;;;;367.48;331.08;;;;;;;;;;5045643;28;20430;-83
2023/10/28 01:05:15;;;;;;;243.13;130.73;;;;;;;;;;5031022;28;20037;-83
2023/10/28 01:07:41;;;;;;;209.13;93.22;;;;;;;;;;5018511;28;20041;-84
2023/10/28 01:10:08;;;;;;;222.20;91.82;;;;;;;;;;5009809;28;20438;-84
2023/10/28 01:12:34;;;;;;;177.07;82.93;;;;;;;;;;5042053;28;20112;-82
2023/10/28 01:15:02;;;;;;;287.98;118.25;;;;;;;;;;5013891;28;20049;-83
2023/10/28 01:17:27;;;;;;;300.98;107.47;;;;;;;;;;5011299;28;20113;-83
2023/10/28 01:19:53;;;;;;;295.40;103.20;;;;;;;;;;5009161;28;20340;-84
2023/10/28 01:22:19;;;;;;;268.75;99.45;;;;;;;;;;5007517;28;20038;-84
2023/10/28 01:24:44;;;;;;;263.17;101.50;;;;;;;;;;5014233;28;20041;-82
2023/10/28 01:27:11;;;;;;;260.92;97.15;;;;;;;;;;5027922;28;20431;-83
2023/10/28 01:29:36;;;;;;;248.75;111.07;;;;;;;;;;5018278;28;20049;-83
2023/10/28 01:32:03;;;;;;;253.98;103.03;;;;;;;;;;5037557;28;20041;-85
2023/10/28 01:34:28;;;;;;;275.63;104.80;;;;;;;;;;5018406;28;20042;-84
2023/10/28 01:36:55;;;;;;;265.58;118.18;;;;;;;10.56;nan;98672.22;5009558;28;20120;-83
2023/10/28 01:39:21;;;;;;;244.48;97.90;;;;;;;;;;5049135;28;20037;-84
2023/10/28 01:41:46;;;;;;;251.03;91.37;;;;;;;;;;5037736;28;20040;-82
2023/10/28 01:44:11;;;;;;;227.40;91.40;;;;;;;;;;5032586;28;20041;-84
2023/10/28 01:46:36;;;;;;;223.13;83.38;;;;;;;;;;5020863;28;20501;-83
2023/10/28 01:49:03;;;;;;;233.70;81.93;;;;;;;;;;5027205;28;20030;-84
2023/10/28 01:51:28;;;;;;;241.05;83.32;;;;;;;;;;5037834;28;20109;-84
2023/10/28 01:53:55;;;;;;;233.57;79.80;;;;;;;;;;5030862;28;20053;-83
2023/10/28 01:56:20;;;;;;;228.02;80.35;;;;;;;;;;5029478;28;20503;-83
2023/10/28 01:58:45;;;;;;;222.03;76.67;;;;;;;;;;5040112;28;20049;-84
2023/10/28 02:01:10;;;;;;;224.93;75.13;;;;;;;;;;5035154;28;20030;-84
2023/10/28 02:03:35;;;;;;;225.80;74.50;;;;;;;;;;5019790;28;20281;-84
2023/10/28 02:06:01;;;;;;;232.93;77.50;;;;;;;;;;5014754;28;20038;-84
2023/10/28 02:08:26;;;;;;;225.47;76.43;;;;;;;;;;5016556;28;20304;-82
2023/10/28 02:10:51;;;;;;;225.63;80.47;;;;;;;;;;5010825;28;20300;-84
2023/10/28 02:13:16;;;;;;;247.27;78.57;;;;;;;;;;5016508;28;20389;-83
2023/10/28 02:15:42;;;;;;;224.87;82.63;;;;;;;;;;5015301;28;20026;-84
2023/10/28 02:18:08;;;;;;;199.90;75.70;;;;;;;;;;5034184;28;20400;-83
2023/10/28 02:20:33;;;;;;;209.57;72.28;;;;;;;;;;5014625;28;20139;-83
2023/10/28 02:22:59;;;;;;;204.35;72.78;;;;;;;;;;5013579;28;20667;-85
2023/10/28 02:25:24;;;;;;;213.60;72.63;;;;;;;;;;5011671;28;20034;-84
2023/10/28 02:27:49;;;;;;;213.83;72.20;;;;;;;;;;5005630;28;20385;-84
2023/10/28 02:30:14;;;;;;;219.88;75.78;;;;;;;;;;5006374;28;20250;-82
2023/10/28 02:32:39;;;;;;;256.50;104.20;;;;;;;;;;5024257;28;20039;-84
2023/10/28 02:35:05;;;;;;;215.88;74.18;;;;;;;;;;5013121;28;20332;-82
2023/10/28 02:37:30;;;;;;;196.77;72.32;;;;;;;;;;5027230;28;20061;-84
2023/10/28 02:39:55;;;;;;;219.60;87.17;;;;;;;;;;5013567;28;20496;-84
2023/10/28 02:42:21;;;;;;;;;;;;;;;;;;5014410;28;20408;-83
2023/10/28 02:44:46;;;;;;;;;;;;;;;;;;5033630;28;19913;-84
2023/10/28 02:47:11;;;;;;;;;;;;;;;;;;5037542;28;19921;-81
2023/10/28 02:49:37;;;;;;;;;;;;;;;;;;5034413;28;20430;-85
2023/10/28 02:52:02;;;;;;;;;;;;;;;;;;5024559;28;19913;-84
2023/10/28 02:54:27;;;;;;;;;;;;;;;;;;5033531;28;19917;-82
2023/10/28 02:56:52;;;;;;;;;;;;;;;;;;5043325;28;19936;-82
2023/10/28 02:59:17;;;;;;;;;;;;;;;;;;5051318;28;19913;-82
2023/10/28 03:01:42;;;;;;;239.77;105.00;;;;;;;;;;5046345;28;19913;-83
2023/10/28 03:04:07;;;;;;;;;;;;;;;;;;5021168;28;20101;-82
2023/10/28 03:06:33;;;;;;;;;;;;;;;;;;5040430;28;19920;-83
2023/10/28 03:08:58;;;;;;;363.10;254.43;;;;;;;;;;5037346;28;19917;-84
2023/10/28 03:11:23;;;;;;;340.52;254.98;;;;;;;;;;5038579;28;20800;-84
2023/10/28 03:13:48;;;;;;;257.23;221.83;;;;;;;;;;5047318;28;20034;-84
2023/10/28 03:16:13;;;;;;;0.30;0.30;;;;;;;;;;5052346;28;20273;-82
2023/10/28 03:18:39;;;;;;;142.60;84.77;;;;;;;;;;5028267;28;20519;-84
2023/10/28 03:21:04;;;;;;;248.50;151.20;;;;;;;;;;5024427;28;20119;-83
2023/10/28 03:23:30;;;;;;;130.80;117.20;;;;;;;;;;5030607;28;20029;-84
2023/10/28 03:25:55;;;;;;;295.30;215.37;;;;;;;;;;5034114;28;20033;-84
2023/10/28 03:28:21;;;;;;;317.27;212.63;;;;;;;;;;5052965;28;20285;-83
2023/10/28 03:30:46;;;;;;;288.77;167.93;;;;;;;;;;5034078;28;20045;-84
2023/10/28 03:33:11;;;;;;;292.63;184.55;;;;;;;;;;5036754;28;20030;-84
2023/10/28 03:35:37;;;;;;;348.60;274.87;;;;;;;;;;5038017;28;20490;-84
2023/10/28 03:38:02;;;;;;;313.33;228.65;;;;;;;;;;5027082;28;20030;-84
2023/10/28 03:40:27;;;;;;;211.13;112.93;;;;;;;;;;5015870;28;20125;-83
2023/10/28 03:42:52;;;;;;;260.73;137.03;;;;;;;;;;5019613;28;20034;-84
2023/10/28 03:45:17;;;;;;;276.20;173.23;;;;;;;;;;5021485;28;20026;-82
2023/10/28 03:47:43;;;;;;;303.92;181.38;;;;;;;;;;5016729;28;20403;-83
2023/10/28 03:50:09;;;;;;;277.55;170.82;;;;;;;10.50;nan;98700.22;5016241;28;20038;-84
2023/10/28 03:52:35;;;;;;;268.75;151.75;;;;;;;;;;5042940;28;20056;-84
2023/10/28 03:55:00;;;;;;;275.20;132.47;;;;;;;;;;5054334;28;20033;-83
2023/10/28 03:57:25;;;;;;;261.47;108.07;;;;;;;;;;5054553;28;20096;-84
2023/10/28 03:59:50;;;;;;;267.27;104.60;;;;;;;;;;5054606;28;20112;-83
2023/10/28 04:02:17;;;;;;;234.57;115.20;;;;;;;;;;5051934;28;20051;-83
2023/10/28 04:04:43;;;;;;;289.27;151.07;;;;;;;;;;5052835;28;20057;-82
2023/10/28 04:07:08;;;;;;;91.80;77.93;;;;;;;;;;5050272;28;20049;-83
2023/10/28 04:09:33;;;;;;;62.93;50.83;;;;;;;;;;5050036;28;20282;-84
2023/10/28 04:12:00;;;;;;;135.80;107.03;;;;;;;;;;5051874;28;20123;-84
2023/10/28 04:14:25;;;;;;;249.15;132.23;;;;;;;;;;5047095;28;20041;-84
2023/10/28 04:16:50;;;;;;;236.23;102.38;;;;;;;;;;5029942;28;20098;-84
2023/10/28 04:19:15;;;;;;;278.77;112.85;;;;;;;;;;5041924;28;20120;-84
2023/10/28 04:21:41;;;;;;;224.83;102.97;;;;;;;;;;5051477;28;20374;-82
2023/10/28 04:24:07;;;;;;;216.07;86.07;;;;;;;;;;5032887;28;20118;-84
2023/10/28 04:26:32;;;;;;;230.02;86.75;;;;;;;;;;5037515;28;20034;-83
2023/10/28 04:29:00;;;;;;;256.42;96.90;;;;;;;;;;5006192;28;20579;-83
2023/10/28 04:31:26;;;;;;;229.67;88.27;;;;;;;;;;5008865;28;20088;-83
2023/10/28 04:33:52;;;;;;;250.70;91.78;;;;;;;22.38;100.00;119881.88;5023248;28;20739;-84
2023/10/28 04:36:17;;;;;;;280.80;110.95;;;;;;;;;;5032517;28;20122;-83
2023/10/28 04:38:43;;;;;;;258.05;90.43;;;;;;;;;;5032773;28;19913;-84
2023/10/28 04:41:11;;;;;;;262.60;96.13;;;;;;;;;;5032751;28;20029;-83
2023/10/28 04:43:36;;;;;;;238.65;88.72;;;;;;;;;;5032140;28;20284;-83
2023/10/28 04:46:01;;;;;;;;;;;;;;;;;;5031862;28;20542;-84
2023/10/28 04:48:29;;;;;;;238.05;87.25;;;;;;;;;;5031876;28;20308;-85
2023/10/28 04:50:54;;;;;;;243.20;90.55;;;;;;;;;;5032121;28;20048;-84
2023/10/28 04:53:19;;;;;;;247.90;89.70;;;;;;;;;;5047081;28;20037;-84
2023/10/28 04:55:45;;;;;;;236.90;82.13;;;;;;;;;;5032828;28;20523;-83
2023/10/28 04:58:11;;;;;;;240.17;83.80;;;;;;;;;;5031782;28;20026;-83
2023/10/28 05:00:36;;;;;;;237.00;81.80;;;;;;;;;;5013729;28;20034;-85
2023/10/28 05:03:02;;;;;;;233.87;79.53;;;;;;;;;;5023797;28;20463;-84
2023/10/28 05:05:27;;;;;;;237.13;81.85;;;;;;;;;;5036937;28;20307;-83
2023/10/28 05:07:53;;;;;;;234.27;86.07;;;;;;;;;;5033662;28;20507;-84
2023/10/28 05:10:18;;;;;;;233.15;83.75;;;;;;;;;;5034927;28;20116;-84
2023/10/28 05:12:43;;;;;;;230.83;79.53;;;;;;;;;;5034944;28;20128;-83
2023/10/28 05:15:08;;;;;;;233.17;80.00;;;;;;;;;;5034565;28;20303;-84
2023/10/28 05:17:37;;;;;;;233.35;80.00;;;;;;;;;;5038046;28;20034;-85
2023/10/28 05:20:06;;;;;;;236.20;79.05;;;;;;;;;;5049908;28;20034;-85
2023/10/28 05:22:31;;;;;;;232.75;78.05;;;;;;;;;;5029441;28;20057;-84
2023/10/28 05:24:56;;;;;;;236.53;81.63;;;;;;;;;;5014023;28;20033;-84
2023/10/28 05:27:22;;;;;;;229.93;78.40;;;;;;;;;;5024918;28;20299;-83
2023/10/28 05:29:48;;;;;;;230.80;80.73;;;;;;;;;;5027629;28;20121;-84
2023/10/28 05:32:13;;;;;;;234.95;79.53;;;;;;;;;;5031523;28;20052;-84
2023/10/28 05:34:38;;;;;;;229.90;77.10;;;;;;;;;;5033737;28;20402;-84
2023/10/28 05:37:04;;;;;;;235.15;84.18;;;;;;;;;;5033628;28;20306;-85
2023/10/28 05:39:29;;;;;;;229.70;80.45;;;;;;;;;;5032640;28;20029;-84
2023/10/28 05:41:54;;;;;;;208.88;77.95;;;;;;;;;;5032939;28;20484;-84
2023/10/28 05:44:20;;;;;;;237.20;80.30;;;;;;;;;;5030452;28;20033;-84
2023/10/28 05:46:45;;;;;;;238.43;76.67;;;;;;;;;;5039431;28;20120;-84
2023/10/28 05:49:12;;;;;;;237.57;77.53;;;;;;;;;;5030465;28;20276;-83
2023/10/28 05:51:37;;;;;;;239.95;78.35;;;;;;;;;;5031787;28;20037;-85
2023/10/28 05:54:03;;;;;;;232.95;77.20;;;;;;;;;;5030704;28;20033;-84
2023/10/28 05:56:29;;;;;;;208.00;77.47;;;;;;;;;;5033530;28;20029;-84
2023/10/28 05:58:57;;;;;;;196.10;75.32;;;;;;;;;;5048467;28;20048;-84
2023/10/28 06:01:23;;;;;;;211.40;83.15;;;;;;;;;;5020948;28;20037;-84
2023/10/28 06:03:49;;;;;;;184.65;70.82;;;;;;;;;;5027659;28;20066;-83
2023/10/28 06:06:15;;;;;;;191.32;72.03;;;;;;;10.34;nan;98779.81;5034786;28;20030;-85
2023/10/28 06:08:41;;;;;;;187.70;70.90;;;;;;;;;;5016464;28;20041;-83
2023/10/28 06:11:06;;;;;;;201.20;72.22;;;;;;;;;;5023344;28;20492;-82
2023/10/28 06:13:31;;;;;;;178.77;67.93;;;;;;;;;;5024551;28;20040;-83
2023/10/28 06:15:57;;;;;;;1.55;0.40;;;;;;;;;;5036957;28;20038;-85
2023/10/28 06:18:22;;;;;;;203.33;71.63;;;;;;;-145.28;100.00;87209.31;5029005;28;20446;-82
2023/10/28 06:20:47;;;;;;;199.90;72.35;;;;;;;;;;5017999;28;20287;-84
2023/10/28 06:23:13;;;;;;;199.45;71.85;;;;;;;;;;5024149;28;20045;-84
2023/10/28 06:25:38;;;;;;;196.43;72.72;;;;;;;;;;5040364;28;20037;-83
2023/10/28 06:28:05;;;;;;;191.93;73.40;;;;;;;10.64;nan;98732.84;5015350;28;20057;-83
2023/10/28 06:30:30;;;;;;;213.45;74.53;;;;;;;;;;5041120;28;20503;-83
2023/10/28 06:32:56;;;;;;;193.35;70.82;;;;;;;;;;5036739;28;20040;-84
2023/10/28 06:35:21;;;;;;;194.60;70.93;;;;;;;;;;5035935;28;20084;-83
2023/10/28 06:37:46;;;;;;;188.87;70.10;;;;;;;;;;5036847;28;20060;-82
2023/10/28 06:40:11;;;;;;;201.52;73.57;;;;;;;;;;5035356;28;20280;-84
2023/10/28 06:42:37;;;;;;;206.10;73.57;;;;;;;;;;5035471;28;20056;-82
2023/10/28 06:45:05;;;;;;;209.27;77.60;;;;;;;;;;5035961;28;20060;-82
2023/10/28 06:47:31;;;;;;;204.45;71.85;;;;;;;;;;5014526;28;20046;-82
2023/10/28 06:49:56;;;;;;;204.63;70.88;;;;;;;;;;5042986;28;20042;-84
2023/10/28 06:52:24;;;;;;;211.63;74.03;;;;;;;;;;5030238;28;20410;-83
2023/10/28 06:54:49;;;;;;;205.05;72.55;;;;;;;;;;5015209;28;20296;-82
2023/10/28 06:57:15;;;;;;;186.38;70.93;;;;;;;;;;5015461;28;20030;-84
2023/10/28 06:59:41;;;;;;;29.30;10.93;;;;;;;;;;5036934;28;20030;-84
2023/10/28 07:02:06;;;;;;;25.60;11.10;;;;;;;10.93;nan;98836.69;5019020;28;20072;-82
2023/10/28 07:04:31;;;;;;;0.75;0.40;;;;;;;;;;5032270;28;20033;-86
2023/10/28 07:06:56;;;;;;;0.20;0.20;;;;;;;;;;5015116;28;20384;-83
2023/10/28 07:09:22;;;;;;;0.30;0.30;;;;;;;;;;5016722;28;20038;-85
2023/10/28 07:11:47;;;;;;;262.47;100.63;;;;;;;;;;5021003;28;20042;-85
2023/10/28 07:14:12;;;;;;;254.03;89.20;;;;;;;;;;5023482;28;20026;-82
2023/10/28 07:16:38;;;;;;;244.88;84.57;;;;;;;;;;5028159;28;20110;-83
2023/10/28 07:19:03;;;;;;;242.88;81.35;;;;;;;;;;5019103;28;20058;-85
2023/10/28 07:21:28;;;;;;;241.75;81.13;;;;;;;;;;5017124;28;20495;-83
2023/10/28 07:23:54;;;;;;;240.05;80.20;;;;;;;;;;5016999;28;20107;-83
2023/10/28 07:26:19;;;;;;;232.85;80.18;;;;;;;;;;5022667;28;20033;-84
2023/10/28 07:28:45;;;;;;;239.63;81.10;;;;;;;;;;5022447;28;20038;-84
2023/10/28 07:31:10;;;;;;;246.13;80.93;;;;;;;;;;5023265;28;20033;-84
2023/10/28 07:33:35;;;;;;;244.87;81.90;;;;;;;;;;5016326;28;20030;-84
2023/10/28 07:36:02;;;;;;;249.68;83.35;;;;;;;;;;5017602;28;20330;-85
2023/10/28 07:38:28;;;;;;;248.00;82.63;;;;;;;;;;5016494;28;20034;-85
2023/10/28 07:40:53;;;;;;;242.68;84.50;;;;;;;;;;5015988;28;20533;-84
2023/10/28 07:43:18;;;;;;;241.90;80.60;;;;;;;;;;5019236;28;20036;-86
2023/10/28 07:45:45;;;;;;;234.05;80.22;;;;;;;;;;5013963;28;20038;-86
2023/10/28 07:48:11;;;;;;;242.23;84.38;;;;;;;;;;5014717;28;20296;-85
2023/10/28 07:50:36;;;;;;;236.95;81.45;;;;;;;;;;5032197;28;20042;-85
2023/10/28 07:53:03;;;;;;;240.63;83.32;;;;;;;;;;5014883;28;20034;-84
2023/10/28 07:55:30;;;;;;;232.80;79.78;;;;;;;;;;5033240;28;20042;-85
2023/10/28 07:57:55;;;;;;;222.18;78.38;;;;;;;;;;5021867;28;20034;-85
2023/10/28 08:00:20;;;;;;;234.93;80.03;;;;;;;;;;5013700;28;20034;-86
2023/10/28 08:02:45;;;;;;;227.05;80.68;;;;;;;;;;5013599;28;20045;-84
2023/10/28 08:05:11;;;;;;;225.43;79.45;;;;;;;;;;5014576;28;20109;-84
2023/10/28 08:07:37;;;;;;;221.50;82.50;;;;;;;;;;5012690;28;20041;-84
2023/10/28 08:10:02;;;;;;;233.77;84.07;;;;;;;;;;5013968;28;20061;-85
2023/10/28 08:12:27;;;;;;;219.52;77.72;;;;;;;;;;5015471;28;20057;-84
2023/10/28 08:14:52;;;;;;;211.37;74.37;;;;;;;;;;5014425;28;20030;-84
2023/10/28 08:17:18;;;;;;;215.57;77.63;;;;;;;;;;5019062;28;20280;-84
2023/10/28 08:19:43;;;;;;;210.95;74.55;;;;;;;;;;5013315;28;20269;-85
2023/10/28 08:22:08;;;;;;;214.80;77.55;;;;;;;;;;5013793;28;20029;-85
2023/10/28 08:24:33;;;;;;;210.87;74.37;;;;;;;;;;5013970;28;20585;-84
2023/10/28 08:26:59;;;;;;;218.90;76.07;;;;;;;;;;5014283;28;20114;-84
2023/10/28 08:29:24;;;;;;;206.18;74.63;;;;;;;;;;5014779;28;20665;-86
2023/10/28 08:31:49;;;;;;;219.85;78.43;;;;;;;;;;5029753;28;20119;-83
2023/10/28 08:34:15;;;;;;;218.50;77.80;;;;;;;;;;5007458;28;20037;-84
2023/10/28 08:36:41;;;;;;;216.30;75.07;;;;;;;;;;5013649;28;20660;-84
2023/10/28 08:39:07;;;;;;;219.10;78.95;;;;;;;;;;5014292;28;20037;-85
2023/10/28 08:41:34;;;;;;;221.15;78.63;;;;;;;;;;5014355;28;20026;-85
2023/10/28 08:44:00;;;;;;;214.10;78.40;;;;;;;;;;5014419;28;20030;-84
2023/10/28 08:46:26;;;;;;;218.13;82.72;;;;;;;;;;5011760;28;20038;-84
2023/10/28 08:48:52;;;;;;;214.57;76.80;;;;;;;;;;5014044;28;20053;-85
2023/10/28 08:51:17;;;;;;;218.27;79.47;;;;;;;;;;5014572;28;20038;-82
2023/10/28 08:53:44;;;;;;;215.50;78.90;;;;;;;;;;5014494;28;20387;-84
2023/10/28 08:56:10;;;;;;;0.45;0.30;;;;;;;;;;5016499;28;20061;-86
2023/10/28 08:58:37;;;;;;;227.18;79.70;;;;;;;11.98;nan;98925.47;5010328;28;20136;-86
2023/10/28 09:01:03;;;;;;;218.23;74.28;;;;;;;;;;5011655;28;20029;-86
2023/10/28 09:03:30;;;;;;;219.35;74.57;;;;;;;;;;5015954;28;20034;-84
2023/10/28 09:05:55;;;;;;;0.25;0.22;;;;;;;;;;5017698;28;20430;-85
2023/10/28 09:08:21;;;;;;;231.65;80.95;;;;;;;;;;5031711;28;20050;-84
2023/10/28 09:10:46;;;;;;;217.18;76.85;;;;;;;;;;5013901;28;20089;-86
2023/10/28 09:13:12;;;;;;;252.90;92.20;;;;;;;;;;5011873;28;20766;-85
2023/10/28 09:15:37;;;;;;;;;;;;;;;;;;5011663;28;20036;-85
2023/10/28 09:18:02;;;;;;;246.30;82.27;;;;;;;;;;5025907;28;20004;-85
2023/10/28 09:20:28;;;;;;;246.25;86.22;;;;;;;;;;5012152;28;20632;-86
2023/10/28 09:22:53;;;;;;;226.63;81.00;;;;;;;;;;5012856;28;20026;-83
2023/10/28 09:25:18;;;;;;;229.32;80.80;;;;;;;;;;5014912;28;20518;-84
2023/10/28 09:27:45;;;;;;;233.52;82.82;;;;;;;;;;5013244;28;20045;-83
2023/10/28 09:30:11;;;;;;;235.95;82.80;;;;;;;;;;5006104;28;20105;-84
2023/10/28 09:32:37;;;;;;;120.25;45.28;;;;;;;;;;5014838;28;20064;-84
2023/10/28 09:35:05;;;;;;;42.97;18.08;;;;;;;;;;5018585;28;20101;-85
2023/10/28 09:37:34;;;;;;;73.25;29.80;;;;;;;;;;5014025;28;20041;-84
2023/10/28 09:40:00;;;;;;;232.07;103.45;;;;;;;;;;5015368;28;20451;-85
2023/10/28 09:42:29;;;;;;;269.63;101.03;;;;;;;;;;5008214;28;20827;-83
2023/10/28 09:44:54;;;;;;;275.15;101.97;;;;;;;;;;5025915;28;20048;-86
2023/10/28 09:47:22;;;;;;;251.23;97.68;;;;;;;;;;5038875;28;20037;-84
2023/10/28 09:49:51;;;;;;;231.70;91.72;;;;;;;;;;5018573;28;20041;-87
2023/10/28 09:52:18;;;;;;;266.50;101.47;;;;;;;;;;5011122;28;20037;-84
2023/10/28 09:54:43;;;;;;;270.65;99.18;;;;;;;;;;5044521;28;20252;-86
2023/10/28 09:57:10;;;;;;;267.73;95.90;;;;;;;;;;5024135;28;20109;-84
2023/10/28 09:59:37;;;;;;;271.70;98.80;;;;;;;;;;5021251;28;20265;-85
2023/10/28 10:02:02;;;;;;;272.85;101.30;;;;;;;;;;5010252;28;20236;-83
2023/10/28 10:04:35;;;;;;;263.60;98.30;;;;;;;;;;5035525;28;20246;-85
2023/10/28 10:07:01;;;;;;;204.25;98.95;;;;;;;;;;5024822;28;20064;-83
2023/10/28 10:09:27;;;;;;;270.60;99.45;;;;;;;;;;5007261;28;20050;-84
2023/10/28 10:11:52;;;;;;;250.75;95.35;;;;;;;;;;5038260;28;20034;-85
2023/10/28 10:14:18;;;;;;;239.50;87.63;;;;;;;;;;5057757;28;20029;-84
2023/10/28 10:16:49;;;;;;;228.93;82.15;;;;;;;;;;5022190;28;20460;-85
2023/10/28 10:19:20;;;;;;;237.48;83.38;;;;;;;;;;5019714;28;20030;-84
2023/10/28 10:21:45;;;;;;;;;;;;;;;;;;5035402;28;20030;-84
2023/10/28 10:24:10;;;;;;;278.20;104.63;;;;;;;;;;5020466;28;19967;-84
2023/10/28 10:26:36;;;;;;;273.20;98.23;;;;;;;;;;5031689;28;20039;-84
2023/10/28 10:29:03;;;;;;;267.55;96.63;;;;;;;;;;5017699;28;20296;-84
2023/10/28 10:31:30;;;;;;;266.63;98.15;;;;;;;;;;5016530;28;20041;-86
2023/10/28 10:34:01;;;;;;;247.10;122.22;;;;;;;;;;5027138;28;20053;-84
2023/10/28 10:36:27;;;;;;;272.73;96.13;;;;;;;;;;5034895;28;20036;-85
2023/10/28 10:38:53;;;;;;;255.55;90.60;;;;;;;;;;5047345;28;20029;-85
2023/10/28 10:41:26;;;;;;;244.25;85.15;;;;;;;;;;5018715;28;20092;-84
2023/10/28 10:43:51;;;;;;;234.98;80.95;;;;;;;;;;5007731;28;20089;-83
2023/10/28 10:46:18;;;;;;;244.85;86.25;;;;;;;14.21;nan;98967.22;5015772;28;20030;-84
2023/10/28 10:48:44;;;;;;;248.38;83.78;;;;;;;;;;5039739;28;20046;-83
2023/10/28 10:51:09;;;;;;;249.88;84.70;;;;;;;;;;5016383;28;20069;-86
2023/10/28 10:53:44;;;;;;;255.00;87.33;;;;;;;;;;5017600;28;20097;-84
2023/10/28 10:56:19;;;;;;;250.70;96.15;;;;;;;;;;5025066;28;20297;-86
2023/10/28 10:58:45;;;;;;;239.00;80.80;;;;;;;;;;5017202;28;20034;-83
2023/10/28 11:01:12;;;;;;;239.02;82.38;;;;;;;14.84;nan;99024.91;5014190;28;20034;-85
2023/10/28 11:03:39;;;;;;;255.52;86.85;;;;;;;;;;5016817;28;20049;-85
2023/10/28 11:06:05;;;;;;;244.75;92.88;;;;;;;;;;5017005;28;20463;-84
2023/10/28 11:08:30;;;;;;;249.55;97.30;;;;;;;;;;5019799;28;20486;-83
2023/10/28 11:10:55;;;;;;;230.43;85.70;;;;;;;15.02;nan;99054.25;5029494;28;20502;-85
2023/10/28 11:13:22;;;;;;;222.43;85.53;;;;;;;;;;5035035;28;20042;-84
2023/10/28 11:15:49;;;;;;;229.60;85.50;;;;;;;;;;5013239;28;20121;-86
2023/10/28 11:18:14;;;;;;;229.70;84.47;;;;;;;;;;5010089;28;20026;-85
2023/10/28 11:20:42;;;;;;;229.95;83.25;;;;;;;;;;5015338;28;20029;-85
2023/10/28 11:23:07;;;;;;;223.75;83.15;;;;;;;;;;5011559;28;20084;-86
2023/10/28 11:25:33;;;;;;;220.27;79.73;;;;;;;;;;5013076;28;20038;-86
2023/10/28 11:28:04;;;;;;;219.57;80.63;;;;;;;;;;5012805;28;20038;-85
2023/10/28 11:30:29;;;;;;;220.40;81.00;;;;;;;14.77;nan;98909.72;5012958;28;20503;-85
2023/10/28 11:32:54;;;;;;;230.93;82.97;;;;;;;14.66;nan;98900.63;5026027;28;20057;-85
2023/10/28 11:35:19;;;;;;;223.80;81.38;;;;;;;;;;5026191;28;20516;-85
2023/10/28 11:37:45;;;;;;;220.60;81.37;;;;;;;;;;5023598;28;20062;-85
2023/10/28 11:40:10;;;;;;;221.20;82.13;;;;;;;;;;5015825;28;20358;-85
2023/10/28 11:42:37;;;;;;;76.30;29.58;;;;;;;;;;5017464;28;20945;-85
2023/10/28 11:45:04;;;;;;;234.43;93.15;;;;;;;;;;5013036;28;20050;-85
2023/10/28 11:47:29;;;;;;;233.95;84.45;;;;;;;;;;5014573;28;20037;-84
2023/10/28 11:49:57;;;;;;;228.35;84.38;;;;;;;;;;5013599;28;20044;-84
2023/10/28 11:52:22;;;;;;;231.23;80.90;;;;;;;;;;5011941;28;20107;-83
2023/10/28 11:54:48;;;;;;;230.00;81.63;;;;;;;;;;5013253;28;20034;-85
2023/10/28 11:57:13;;;;;;;227.05;79.40;;;;;;;;;;5019357;28;20026;-84
2023/10/28 11:59:38;;;;;;;221.77;77.35;;;;;;;;;;5013267;28;20065;-85
2023/10/28 12:02:03;;;;;;;228.87;77.63;;;;;;;;;;5014524;28;20030;-84
2023/10/28 12:04:29;;;;;;;231.55;80.00;;;;;;;;;;5013608;28;20273;-85
2023/10/28 12:06:54;;;;;;;224.10;76.57;;;;;;;;;;5008857;28;20053;-85
2023/10/28 12:09:19;;;;;;;221.15;79.00;;;;;;;;;;5009673;28;20342;-84
2023/10/28 12:11:46;;;;;;;229.48;83.30;;;;;;;12.82;nan;98941.88;5014852;28;20053;-84
2023/10/28 12:14:11;;;;;;;230.48;81.10;;;;;;;;;;5013786;28;20073;-85
2023/10/28 12:16:46;;;;;;;220.70;80.13;;;;;;;;;;5019093;28;20061;-84
2023/10/28 12:19:11;;;;;;;242.88;81.78;;;;;;;;;;5012628;28;20595;-84
2023/10/28 12:21:37;;;;;;;6.47;1.03;;;;;;;12.61;nan;99030.41;5012830;28;20100;-84
2023/10/28 12:24:05;;;;;;;52.55;20.15;;;;;;;;;;5013729;28;20273;-84
2023/10/28 12:26:30;;;;;;;4.28;1.27;;;;;;;;;;5027343;28;20038;-84
2023/10/28 12:28:56;;;;;;;229.65;80.45;;;;;;;;;;5032427;28;20041;-84
2023/10/28 12:31:22;;;;;;;91.30;32.80;;;;;;;;;;5028756;28;20038;-84
2023/10/28 12:33:48;;;;;;;265.42;101.60;;;;;;;;;;5031064;28;20030;-84
2023/10/28 12:36:16;;;;;;;279.63;107.95;;;;;;;;;;5032197;28;20063;-83
2023/10/28 12:38:41;;;;;;;274.58;97.40;;;;;;;;;;5032015;28;20034;-84
2023/10/28 12:41:06;;;;;;;279.92;99.38;;;;;;;;;;5020964;28;20044;-83
2023/10/28 12:43:31;;;;;;;243.00;89.10;;;;;;;;;;5011230;28;20420;-84
2023/10/28 12:45:56;;;;;;;;;;;;;;;;;;5027310;28;20064;-84
2023/10/28 12:48:22;;;;;;;255.05;87.57;;;;;;;;;;5030763;28;19960;-85
2023/10/28 12:50:47;;;;;;;264.13;93.00;;;;;;;;;;5031416;28;20029;-84
2023/10/28 12:53:13;;;;;;;262.70;92.67;;;;;;;;;;5035394;28;20033;-84
2023/10/28 12:55:38;;;;;;;;;;;;;;;;;;5018718;28;20041;-85
2023/10/28 12:58:03;;;;;;;255.57;85.15;;;;;;;;;;5009799;28;20064;-84
2023/10/28 13:00:28;;;;;;;266.37;93.63;;;;;;;;;;5010346;28;20033;-84
2023/10/28 13:02:54;;;;;;;261.63;87.87;;;;;;;;;;5012190;28;20108;-85
2023/10/28 13:05:19;;;;;;;259.90;88.65;;;;;;;;;;5013888;28;20037;-83
2023/10/28 13:07:44;;;;;;;263.60;87.05;;;;;;;;;;5011067;28;20117;-85
2023/10/28 13:10:10;;;;;;;258.47;83.27;;;;;;;;;;5012473;28;20112;-84
2023/10/28 13:12:36;;;;;;;254.90;81.03;;;;;;;;;;5012140;28;20054;-84
2023/10/28 13:15:01;;;;;;;255.85;81.32;;;;;;;;;;5011330;28;20063;-83
2023/10/28 13:17:26;;;;;;;261.17;85.57;;;;;;;;;;5020078;28;20046;-84
2023/10/28 13:19:51;;;;;;;259.40;83.27;;;;;;;;;;5012635;28;20277;-83
2023/10/28 13:22:17;;;;;;;253.93;81.07;;;;;;;;;;5010463;28;20440;-85
2023/10/28 13:24:42;;;;;;;253.48;81.07;;;;;;;;;;5011293;28;20273;-84
2023/10/28 13:27:08;;;;;;;253.45;80.40;;;;;;;;;;5010284;28;20480;-84
2023/10/28 13:29:33;;;;;;;251.27;80.83;;;;;;;;;;5007819;28;20042;-83
2023/10/28 13:31:58;;;;;;;267.00;93.90;;;;;;;;;;5010483;28;20415;-83
2023/10/28 13:34:25;;;;;;;269.17;100.80;;;;;;;;;;5016550;28;20483;-83
2023/10/28 13:36:50;;;;;;;254.57;84.55;;;;;;;;;;5012978;28;20046;-83
2023/10/28 13:39:16;;;;;;;262.73;86.33;;;;;;;22.40;100.00;87211.78;5011839;28;20076;-83
2023/10/28 13:41:41;;;;;;;;;;;;;;;;;;5011688;28;20285;-84
2023/10/28 13:44:06;;;;;;;;;;;;;;;;;;5009130;28;19925;-84
2023/10/28 13:46:31;;;;;;;;;;;;;;;;;;5005918;28;19933;-84
2023/10/28 13:48:59;;;;;;;;;;;;;;;;;;5002156;28;20647;-84
2023/10/28 13:51:25;;;;;;;;;;;;;;;;;;5008881;28;20008;-84
2023/10/28 13:53:50;;;;;;;;;;;;;;;;;;5011416;28;19922;-84
2023/10/28 13:56:16;;;;;;;;;;;;;;;;;;5007912;28;19944;-84
2023/10/28 13:58:41;;;;;;;256.15;80.00;;;;;;;;;;5010477;28;19921;-83
2023/10/28 14:01:07;;;;;;;249.47;78.50;;;;;;;;;;5013437;28;20042;-83
2023/10/28 14:03:33;;;;;;;255.40;89.05;;;;;;;;;;5008661;28;20703;-84